sensor_id;sensor_type;location;lat;lon;timestamp;P1;durP1;ratioP1;P2;durP2;ratioP2
23628;SDS011;11991;57.150;-2.134;2023-04-06T00:01:08;9.88;;;4.70;;
23628;SDS011;11991;57.150;-2.134;2023-04-06T00:03:36;6.10;;;4.13;;
23628;SDS011;11991;57.150;-2.134;2023-04-06T00:06:04;5.68;;;3.40;;
23628;SDS011;11991;57.150;-2.134;2023-04-06T00:08:32;9.35;;;5.47;;
23628;SDS011;11991;57.150;-2.134;2023-04-06T00:10:59;9.73;;;5.60;;
23628;SDS011;11991;57.150;-2.134;2023-04-06T00:13:27;9.95;;;5.30;;
23628;SDS011;11991;57.150;-2.134;2023-04-06T00:15:54;10.73;;;6.05;;
23628;SDS011;11991;57.150;-2.134;2023-04-06T00:18:21;6.90;;;4.85;;
23628;SDS011;11991;57.150;-2.134;2023-04-06T00:20:49;10.68;;;6.38;;
23628;SDS011;11991;57.150;-2.134;2023-04-06T00:23:17;10.70;;;6.18;;
23628;SDS011;11991;57.150;-2.134;2023-04-06T00:25:45;14.10;;;8.13;;
23628;SDS011;11991;57.150;-2.134;2023-04-06T00:28:12;11.32;;;6.85;;
23628;SDS011;11991;57.150;-2.134;2023-04-06T00:30:40;10.98;;;6.13;;
23628;SDS011;11991;57.150;-2.134;2023-04-06T00:33:07;8.77;;;4.95;;
23628;SDS011;11991;57.150;-2.134;2023-04-06T00:35:35;8.30;;;5.05;;
23628;SDS011;11991;57.150;-2.134;2023-04-06T00:38:02;13.52;;;7.97;;
23628;SDS011;11991;57.150;-2.134;2023-04-06T00:40:29;8.27;;;5.10;;
23628;SDS011;11991;57.150;-2.134;2023-04-06T00:42:57;8.82;;;5.40;;
23628;SDS011;11991;57.150;-2.134;2023-04-06T00:45:25;10.55;;;6.47;;
23628;SDS011;11991;57.150;-2.134;2023-04-06T00:47:52;13.95;;;7.30;;
23628;SDS011;11991;57.150;-2.134;2023-04-06T00:50:19;10.60;;;5.70;;
23628;SDS011;11991;57.150;-2.134;2023-04-06T00:52:47;8.15;;;5.07;;
23628;SDS011;11991;57.150;-2.134;2023-04-06T00:55:15;9.90;;;6.28;;
23628;SDS011;11991;57.150;-2.134;2023-04-06T00:57:43;8.63;;;5.55;;
23628;SDS011;11991;57.150;-2.134;2023-04-06T01:00:11;8.35;;;5.03;;
23628;SDS011;11991;57.150;-2.134;2023-04-06T01:02:41;8.05;;;4.82;;
23628;SDS011;11991;57.150;-2.134;2023-04-06T01:05:09;8.70;;;5.13;;
23628;SDS011;11991;57.150;-2.134;2023-04-06T01:07:46;5.75;;;3.90;;
23628;SDS011;11991;57.150;-2.134;2023-04-06T01:10:24;7.32;;;4.63;;
23628;SDS011;11991;57.150;-2.134;2023-04-06T01:13:00;6.85;;;4.60;;
23628;SDS011;11991;57.150;-2.134;2023-04-06T01:15:42;6.90;;;4.38;;
23628;SDS011;11991;57.150;-2.134;2023-04-06T01:18:15;6.63;;;4.50;;
23628;SDS011;11991;57.150;-2.134;2023-04-06T01:20:52;7.20;;;4.57;;
23628;SDS011;11991;57.150;-2.134;2023-04-06T01:23:23;7.22;;;4.70;;
23628;SDS011;11991;57.150;-2.134;2023-04-06T01:25:50;7.35;;;4.75;;
23628;SDS011;11991;57.150;-2.134;2023-04-06T01:28:17;9.07;;;5.07;;
23628;SDS011;11991;57.150;-2.134;2023-04-06T01:31:03;8.93;;;4.60;;
23628;SDS011;11991;57.150;-2.134;2023-04-06T01:33:41;7.55;;;4.50;;
23628;SDS011;11991;57.150;-2.134;2023-04-06T01:36:12;4.63;;;3.10;;
23628;SDS011;11991;57.150;-2.134;2023-04-06T01:38:39;6.05;;;4.10;;
23628;SDS011;11991;57.150;-2.134;2023-04-06T01:41:08;7.03;;;4.10;;
23628;SDS011;11991;57.150;-2.134;2023-04-06T01:43:46;6.70;;;4.55;;
23628;SDS011;11991;57.150;-2.134;2023-04-06T01:46:15;7.15;;;4.25;;
23628;SDS011;11991;57.150;-2.134;2023-04-06T01:48:44;5.95;;;3.85;;
23628;SDS011;11991;57.150;-2.134;2023-04-06T01:51:31;5.38;;;3.90;;
23628;SDS011;11991;57.150;-2.134;2023-04-06T01:54:01;7.38;;;5.07;;
23628;SDS011;11991;57.150;-2.134;2023-04-06T01:56:41;12.95;;;5.97;;
23628;SDS011;11991;57.150;-2.134;2023-04-06T01:59:28;6.20;;;3.83;;
23628;SDS011;11991;57.150;-2.134;2023-04-06T02:01:57;7.32;;;4.53;;
23628;SDS011;11991;57.150;-2.134;2023-04-06T02:04:26;7.25;;;4.47;;
23628;SDS011;11991;57.150;-2.134;2023-04-06T02:07:04;6.38;;;3.85;;
23628;SDS011;11991;57.150;-2.134;2023-04-06T02:09:31;7.60;;;4.80;;
23628;SDS011;11991;57.150;-2.134;2023-04-06T02:11:58;9.50;;;5.28;;
23628;SDS011;11991;57.150;-2.134;2023-04-06T02:14:30;13.23;;;6.00;;
23628;SDS011;11991;57.150;-2.134;2023-04-06T02:16:59;13.60;;;6.50;;
23628;SDS011;11991;57.150;-2.134;2023-04-06T02:19:26;11.15;;;5.90;;
23628;SDS011;11991;57.150;-2.134;2023-04-06T02:21:53;16.48;;;8.50;;
23628;SDS011;11991;57.150;-2.134;2023-04-06T02:24:21;16.58;;;8.77;;
23628;SDS011;11991;57.150;-2.134;2023-04-06T02:26:48;15.18;;;7.57;;
23628;SDS011;11991;57.150;-2.134;2023-04-06T02:29:16;15.98;;;7.68;;
23628;SDS011;11991;57.150;-2.134;2023-04-06T02:31:43;12.98;;;6.18;;
23628;SDS011;11991;57.150;-2.134;2023-04-06T02:34:11;10.48;;;5.40;;
23628;SDS011;11991;57.150;-2.134;2023-04-06T02:36:47;9.55;;;4.82;;
23628;SDS011;11991;57.150;-2.134;2023-04-06T02:39:14;12.13;;;5.63;;
23628;SDS011;11991;57.150;-2.134;2023-04-06T02:41:42;14.90;;;7.95;;
23628;SDS011;11991;57.150;-2.134;2023-04-06T02:44:10;15.50;;;8.32;;
23628;SDS011;11991;57.150;-2.134;2023-04-06T02:46:42;14.93;;;7.82;;
23628;SDS011;11991;57.150;-2.134;2023-04-06T02:49:09;10.48;;;5.57;;
23628;SDS011;11991;57.150;-2.134;2023-04-06T02:51:37;13.65;;;6.47;;
23628;SDS011;11991;57.150;-2.134;2023-04-06T02:54:30;8.48;;;4.55;;
23628;SDS011;11991;57.150;-2.134;2023-04-06T02:56:59;7.00;;;3.75;;
23628;SDS011;11991;57.150;-2.134;2023-04-06T02:59:35;4.68;;;2.65;;
23628;SDS011;11991;57.150;-2.134;2023-04-06T03:02:23;10.25;;;5.30;;
23628;SDS011;11991;57.150;-2.134;2023-04-06T03:04:52;5.43;;;3.22;;
23628;SDS011;11991;57.150;-2.134;2023-04-06T03:07:25;7.25;;;3.75;;
23628;SDS011;11991;57.150;-2.134;2023-04-06T03:09:52;5.45;;;2.47;;
23628;SDS011;11991;57.150;-2.134;2023-04-06T03:12:19;3.28;;;2.10;;
23628;SDS011;11991;57.150;-2.134;2023-04-06T03:15:07;6.50;;;3.88;;
23628;SDS011;11991;57.150;-2.134;2023-04-06T03:17:36;6.10;;;3.88;;
23628;SDS011;11991;57.150;-2.134;2023-04-06T03:20:08;6.82;;;4.07;;
23628;SDS011;11991;57.150;-2.134;2023-04-06T03:22:35;6.28;;;3.80;;
23628;SDS011;11991;57.150;-2.134;2023-04-06T03:25:03;5.10;;;3.17;;
23628;SDS011;11991;57.150;-2.134;2023-04-06T03:27:32;6.55;;;3.67;;
23628;SDS011;11991;57.150;-2.134;2023-04-06T03:29:59;7.25;;;4.10;;
23628;SDS011;11991;57.150;-2.134;2023-04-06T03:32:31;13.73;;;7.63;;
23628;SDS011;11991;57.150;-2.134;2023-04-06T03:34:59;12.95;;;7.07;;
23628;SDS011;11991;57.150;-2.134;2023-04-06T03:37:26;12.75;;;7.13;;
23628;SDS011;11991;57.150;-2.134;2023-04-06T03:39:58;13.75;;;7.47;;
23628;SDS011;11991;57.150;-2.134;2023-04-06T03:42:25;13.70;;;7.07;;
23628;SDS011;11991;57.150;-2.134;2023-04-06T03:44:59;10.38;;;5.90;;
23628;SDS011;11991;57.150;-2.134;2023-04-06T03:47:26;11.43;;;6.35;;
23628;SDS011;11991;57.150;-2.134;2023-04-06T03:49:57;11.93;;;7.35;;
23628;SDS011;11991;57.150;-2.134;2023-04-06T03:52:25;15.40;;;9.05;;
23628;SDS011;11991;57.150;-2.134;2023-04-06T03:54:52;14.30;;;8.80;;
23628;SDS011;11991;57.150;-2.134;2023-04-06T03:57:19;12.02;;;7.38;;
23628;SDS011;11991;57.150;-2.134;2023-04-06T03:59:47;12.85;;;8.10;;
23628;SDS011;11991;57.150;-2.134;2023-04-06T04:02:14;11.25;;;6.47;;
23628;SDS011;11991;57.150;-2.134;2023-04-06T04:04:41;14.88;;;8.30;;
23628;SDS011;11991;57.150;-2.134;2023-04-06T04:07:08;14.75;;;7.70;;
23628;SDS011;11991;57.150;-2.134;2023-04-06T04:09:36;16.15;;;9.13;;
23628;SDS011;11991;57.150;-2.134;2023-04-06T04:12:03;16.08;;;8.82;;
23628;SDS011;11991;57.150;-2.134;2023-04-06T04:14:31;18.38;;;9.52;;
23628;SDS011;11991;57.150;-2.134;2023-04-06T04:16:58;13.80;;;8.90;;
23628;SDS011;11991;57.150;-2.134;2023-04-06T04:19:25;14.38;;;9.07;;
23628;SDS011;11991;57.150;-2.134;2023-04-06T04:21:53;17.33;;;10.40;;
23628;SDS011;11991;57.150;-2.134;2023-04-06T04:24:29;10.48;;;6.22;;
23628;SDS011;11991;57.150;-2.134;2023-04-06T04:26:56;14.15;;;8.05;;
23628;SDS011;11991;57.150;-2.134;2023-04-06T04:29:24;17.50;;;10.13;;
23628;SDS011;11991;57.150;-2.134;2023-04-06T04:31:52;10.70;;;7.22;;
23628;SDS011;11991;57.150;-2.134;2023-04-06T04:34:20;11.38;;;7.40;;
23628;SDS011;11991;57.150;-2.134;2023-04-06T04:36:49;11.48;;;6.85;;
23628;SDS011;11991;57.150;-2.134;2023-04-06T04:39:23;9.90;;;6.15;;
23628;SDS011;11991;57.150;-2.134;2023-04-06T04:41:57;8.18;;;5.70;;
23628;SDS011;11991;57.150;-2.134;2023-04-06T04:44:24;9.70;;;6.05;;
23628;SDS011;11991;57.150;-2.134;2023-04-06T04:46:53;12.02;;;8.20;;
23628;SDS011;11991;57.150;-2.134;2023-04-06T04:49:25;11.52;;;6.97;;
23628;SDS011;11991;57.150;-2.134;2023-04-06T04:51:54;11.23;;;7.18;;
23628;SDS011;11991;57.150;-2.134;2023-04-06T04:54:28;8.13;;;5.70;;
23628;SDS011;11991;57.150;-2.134;2023-04-06T04:56:55;6.28;;;4.60;;
23628;SDS011;11991;57.150;-2.134;2023-04-06T04:59:36;9.48;;;5.72;;
23628;SDS011;11991;57.150;-2.134;2023-04-06T05:02:14;7.57;;;4.88;;
23628;SDS011;11991;57.150;-2.134;2023-04-06T05:04:52;7.88;;;5.03;;
23628;SDS011;11991;57.150;-2.134;2023-04-06T05:07:23;5.60;;;3.45;;
23628;SDS011;11991;57.150;-2.134;2023-04-06T05:09:52;5.35;;;3.42;;
23628;SDS011;11991;57.150;-2.134;2023-04-06T05:12:23;6.35;;;3.05;;
23628;SDS011;11991;57.150;-2.134;2023-04-06T05:15:01;5.43;;;2.78;;
23628;SDS011;11991;57.150;-2.134;2023-04-06T05:17:29;2.88;;;2.38;;
23628;SDS011;11991;57.150;-2.134;2023-04-06T05:19:57;4.25;;;2.33;;
23628;SDS011;11991;57.150;-2.134;2023-04-06T05:22:25;3.75;;;2.00;;
23628;SDS011;11991;57.150;-2.134;2023-04-06T05:25:01;2.95;;;1.70;;
23628;SDS011;11991;57.150;-2.134;2023-04-06T05:27:30;4.13;;;2.00;;
23628;SDS011;11991;57.150;-2.134;2023-04-06T05:30:00;3.70;;;2.20;;
23628;SDS011;11991;57.150;-2.134;2023-04-06T05:32:31;3.95;;;2.22;;
23628;SDS011;11991;57.150;-2.134;2023-04-06T05:34:58;2.88;;;2.17;;
23628;SDS011;11991;57.150;-2.134;2023-04-06T05:37:25;4.38;;;1.95;;
23628;SDS011;11991;57.150;-2.134;2023-04-06T05:39:52;5.15;;;2.20;;
23628;SDS011;11991;57.150;-2.134;2023-04-06T05:42:21;3.65;;;2.20;;
23628;SDS011;11991;57.150;-2.134;2023-04-06T05:44:52;3.50;;;1.35;;
23628;SDS011;11991;57.150;-2.134;2023-04-06T05:47:19;5.47;;;2.53;;
23628;SDS011;11991;57.150;-2.134;2023-04-06T05:49:52;1.92;;;1.38;;
23628;SDS011;11991;57.150;-2.134;2023-04-06T05:52:40;4.30;;;1.80;;
23628;SDS011;11991;57.150;-2.134;2023-04-06T05:55:12;2.35;;;1.85;;
23628;SDS011;11991;57.150;-2.134;2023-04-06T05:57:42;4.38;;;2.30;;
23628;SDS011;11991;57.150;-2.134;2023-04-06T06:00:10;2.30;;;1.60;;
23628;SDS011;11991;57.150;-2.134;2023-04-06T06:02:40;2.33;;;1.83;;
23628;SDS011;11991;57.150;-2.134;2023-04-06T06:05:15;4.05;;;2.20;;
23628;SDS011;11991;57.150;-2.134;2023-04-06T06:07:42;2.42;;;1.73;;
23628;SDS011;11991;57.150;-2.134;2023-04-06T06:10:10;4.75;;;3.05;;
23628;SDS011;11991;57.150;-2.134;2023-04-06T06:12:37;3.42;;;2.55;;
23628;SDS011;11991;57.150;-2.134;2023-04-06T06:15:05;2.88;;;2.40;;
23628;SDS011;11991;57.150;-2.134;2023-04-06T06:17:37;3.83;;;2.00;;
23628;SDS011;11991;57.150;-2.134;2023-04-06T06:20:06;2.60;;;1.70;;
23628;SDS011;11991;57.150;-2.134;2023-04-06T06:22:34;2.47;;;1.73;;
23628;SDS011;11991;57.150;-2.134;2023-04-06T06:25:02;2.47;;;1.73;;
23628;SDS011;11991;57.150;-2.134;2023-04-06T06:27:29;1.67;;;1.58;;
23628;SDS011;11991;57.150;-2.134;2023-04-06T06:29:56;2.63;;;1.52;;
23628;SDS011;11991;57.150;-2.134;2023-04-06T06:32:24;1.30;;;1.20;;
23628;SDS011;11991;57.150;-2.134;2023-04-06T06:34:52;2.22;;;1.63;;
23628;SDS011;11991;57.150;-2.134;2023-04-06T06:37:19;2.28;;;1.50;;
23628;SDS011;11991;57.150;-2.134;2023-04-06T06:39:47;1.90;;;1.40;;
23628;SDS011;11991;57.150;-2.134;2023-04-06T06:42:16;2.72;;;1.70;;
23628;SDS011;11991;57.150;-2.134;2023-04-06T06:45:01;1.60;;;1.17;;
23628;SDS011;11991;57.150;-2.134;2023-04-06T06:47:29;1.73;;;1.63;;
23628;SDS011;11991;57.150;-2.134;2023-04-06T06:49:56;1.73;;;1.20;;
23628;SDS011;11991;57.150;-2.134;2023-04-06T06:52:23;3.60;;;2.05;;
23628;SDS011;11991;57.150;-2.134;2023-04-06T06:54:50;2.90;;;1.85;;
23628;SDS011;11991;57.150;-2.134;2023-04-06T06:57:18;2.83;;;1.67;;
23628;SDS011;11991;57.150;-2.134;2023-04-06T06:59:46;3.97;;;1.98;;
23628;SDS011;11991;57.150;-2.134;2023-04-06T07:02:14;1.70;;;1.25;;
23628;SDS011;11991;57.150;-2.134;2023-04-06T07:04:41;2.42;;;1.52;;
23628;SDS011;11991;57.150;-2.134;2023-04-06T07:07:09;1.63;;;1.25;;
23628;SDS011;11991;57.150;-2.134;2023-04-06T07:09:36;1.77;;;1.17;;
23628;SDS011;11991;57.150;-2.134;2023-04-06T07:12:05;0.82;;;0.82;;
23628;SDS011;11991;57.150;-2.134;2023-04-06T07:14:32;0.70;;;0.70;;
23628;SDS011;11991;57.150;-2.134;2023-04-06T07:17:00;1.02;;;0.70;;
23628;SDS011;11991;57.150;-2.134;2023-04-06T07:19:27;1.05;;;0.73;;
23628;SDS011;11991;57.150;-2.134;2023-04-06T07:21:55;1.35;;;0.80;;
23628;SDS011;11991;57.150;-2.134;2023-04-06T07:24:22;1.38;;;0.70;;
23628;SDS011;11991;57.150;-2.134;2023-04-06T07:26:50;1.77;;;0.70;;
23628;SDS011;11991;57.150;-2.134;2023-04-06T07:29:18;0.63;;;0.63;;
23628;SDS011;11991;57.150;-2.134;2023-04-06T07:31:45;0.80;;;0.70;;
23628;SDS011;11991;57.150;-2.134;2023-04-06T07:34:12;0.80;;;0.60;;
23628;SDS011;11991;57.150;-2.134;2023-04-06T07:36:39;1.50;;;0.70;;
23628;SDS011;11991;57.150;-2.134;2023-04-06T07:39:07;1.05;;;0.70;;
23628;SDS011;11991;57.150;-2.134;2023-04-06T07:41:35;0.70;;;0.70;;
23628;SDS011;11991;57.150;-2.134;2023-04-06T07:44:02;1.58;;;0.50;;
23628;SDS011;11991;57.150;-2.134;2023-04-06T07:46:30;2.25;;;1.05;;
23628;SDS011;11991;57.150;-2.134;2023-04-06T07:48:59;0.40;;;0.40;;
23628;SDS011;11991;57.150;-2.134;2023-04-06T07:51:29;1.15;;;0.70;;
23628;SDS011;11991;57.150;-2.134;2023-04-06T07:53:57;1.55;;;0.75;;
23628;SDS011;11991;57.150;-2.134;2023-04-06T07:56:25;0.60;;;0.60;;
23628;SDS011;11991;57.150;-2.134;2023-04-06T07:58:52;0.70;;;0.70;;
23628;SDS011;11991;57.150;-2.134;2023-04-06T08:01:22;0.60;;;0.60;;
23628;SDS011;11991;57.150;-2.134;2023-04-06T08:03:49;1.90;;;0.90;;
23628;SDS011;11991;57.150;-2.134;2023-04-06T08:06:17;0.63;;;0.50;;
23628;SDS011;11991;57.150;-2.134;2023-04-06T08:08:44;1.70;;;1.02;;
23628;SDS011;11991;57.150;-2.134;2023-04-06T08:11:11;1.42;;;0.98;;
23628;SDS011;11991;57.150;-2.134;2023-04-06T08:13:38;1.85;;;0.80;;
23628;SDS011;11991;57.150;-2.134;2023-04-06T08:16:05;1.00;;;0.90;;
23628;SDS011;11991;57.150;-2.134;2023-04-06T08:18:33;1.45;;;0.93;;
23628;SDS011;11991;57.150;-2.134;2023-04-06T08:21:00;1.10;;;0.60;;
23628;SDS011;11991;57.150;-2.134;2023-04-06T08:23:27;2.17;;;1.00;;
23628;SDS011;11991;57.150;-2.134;2023-04-06T08:25:54;0.80;;;0.73;;
23628;SDS011;11991;57.150;-2.134;2023-04-06T08:28:22;2.63;;;1.25;;
23628;SDS011;11991;57.150;-2.134;2023-04-06T08:30:50;1.45;;;0.80;;
23628;SDS011;11991;57.150;-2.134;2023-04-06T08:33:17;2.08;;;0.90;;
23628;SDS011;11991;57.150;-2.134;2023-04-06T08:35:44;0.77;;;0.63;;
23628;SDS011;11991;57.150;-2.134;2023-04-06T08:38:11;1.48;;;0.73;;
23628;SDS011;11991;57.150;-2.134;2023-04-06T08:40:39;0.85;;;0.77;;
23628;SDS011;11991;57.150;-2.134;2023-04-06T08:43:08;2.35;;;0.80;;
23628;SDS011;11991;57.150;-2.134;2023-04-06T08:45:40;0.70;;;0.70;;
23628;SDS011;11991;57.150;-2.134;2023-04-06T08:48:08;1.33;;;0.80;;
23628;SDS011;11991;57.150;-2.134;2023-04-06T08:50:36;1.10;;;0.93;;
23628;SDS011;11991;57.150;-2.134;2023-04-06T08:53:05;1.23;;;0.80;;
23628;SDS011;11991;57.150;-2.134;2023-04-06T08:55:34;1.45;;;0.80;;
23628;SDS011;11991;57.150;-2.134;2023-04-06T08:58:02;1.05;;;0.70;;
23628;SDS011;11991;57.150;-2.134;2023-04-06T09:00:33;1.65;;;0.80;;
23628;SDS011;11991;57.150;-2.134;2023-04-06T09:03:04;0.60;;;0.60;;
23628;SDS011;11991;57.150;-2.134;2023-04-06T09:05:34;1.60;;;0.90;;
23628;SDS011;11991;57.150;-2.134;2023-04-06T09:08:02;1.13;;;0.70;;
23628;SDS011;11991;57.150;-2.134;2023-04-06T09:10:29;3.00;;;0.90;;
23628;SDS011;11991;57.150;-2.134;2023-04-06T09:13:07;1.50;;;0.80;;
23628;SDS011;11991;57.150;-2.134;2023-04-06T09:15:35;0.73;;;0.60;;
23628;SDS011;11991;57.150;-2.134;2023-04-06T09:18:04;0.70;;;0.70;;
23628;SDS011;11991;57.150;-2.134;2023-04-06T09:20:32;1.83;;;0.70;;
23628;SDS011;11991;57.150;-2.134;2023-04-06T09:22:59;1.40;;;0.80;;
23628;SDS011;11991;57.150;-2.134;2023-04-06T09:25:26;1.38;;;0.88;;
23628;SDS011;11991;57.150;-2.134;2023-04-06T09:28:01;1.85;;;0.75;;
23628;SDS011;11991;57.150;-2.134;2023-04-06T09:30:30;2.17;;;0.93;;
23628;SDS011;11991;57.150;-2.134;2023-04-06T09:32:57;1.05;;;0.80;;
23628;SDS011;11991;57.150;-2.134;2023-04-06T09:35:26;3.85;;;0.82;;
23628;SDS011;11991;57.150;-2.134;2023-04-06T09:37:54;2.05;;;0.65;;
23628;SDS011;11991;57.150;-2.134;2023-04-06T09:40:21;2.13;;;1.10;;
23628;SDS011;11991;57.150;-2.134;2023-04-06T09:42:49;0.90;;;0.80;;
23628;SDS011;11991;57.150;-2.134;2023-04-06T09:45:19;0.60;;;0.60;;
23628;SDS011;11991;57.150;-2.134;2023-04-06T09:47:47;2.60;;;0.80;;
23628;SDS011;11991;57.150;-2.134;2023-04-06T09:50:19;1.75;;;0.70;;
23628;SDS011;11991;57.150;-2.134;2023-04-06T09:52:47;2.00;;;1.00;;
23628;SDS011;11991;57.150;-2.134;2023-04-06T09:55:40;1.00;;;0.60;;
23628;SDS011;11991;57.150;-2.134;2023-04-06T09:58:17;1.67;;;0.77;;
23628;SDS011;11991;57.150;-2.134;2023-04-06T10:06:14;1.85;;;0.80;;
23628;SDS011;11991;57.150;-2.134;2023-04-06T10:08:45;3.42;;;0.90;;
23628;SDS011;11991;57.150;-2.134;2023-04-06T10:11:14;1.98;;;0.85;;
23628;SDS011;11991;57.150;-2.134;2023-04-06T10:13:42;2.60;;;1.05;;
23628;SDS011;11991;57.150;-2.134;2023-04-06T10:16:10;1.08;;;0.70;;
23628;SDS011;11991;57.150;-2.134;2023-04-06T10:18:39;1.85;;;0.90;;
23628;SDS011;11991;57.150;-2.134;2023-04-06T10:21:12;1.17;;;0.70;;
23628;SDS011;11991;57.150;-2.134;2023-04-06T10:23:48;2.15;;;0.88;;
23628;SDS011;11991;57.150;-2.134;2023-04-06T10:26:21;1.95;;;1.17;;
23628;SDS011;11991;57.150;-2.134;2023-04-06T10:28:49;4.05;;;1.23;;
23628;SDS011;11991;57.150;-2.134;2023-04-06T10:31:26;2.15;;;0.93;;
23628;SDS011;11991;57.150;-2.134;2023-04-06T10:33:58;2.40;;;0.75;;
23628;SDS011;11991;57.150;-2.134;2023-04-06T10:36:33;2.20;;;0.93;;
23628;SDS011;11991;57.150;-2.134;2023-04-06T10:39:02;1.85;;;1.05;;
23628;SDS011;11991;57.150;-2.134;2023-04-06T10:44:21;2.60;;;0.93;;
23628;SDS011;11991;57.150;-2.134;2023-04-06T10:46:53;2.75;;;0.93;;
23628;SDS011;11991;57.150;-2.134;2023-04-06T10:49:24;5.35;;;1.15;;
23628;SDS011;11991;57.150;-2.134;2023-04-06T10:51:53;2.00;;;0.85;;
23628;SDS011;11991;57.150;-2.134;2023-04-06T10:54:21;2.10;;;0.90;;
23628;SDS011;11991;57.150;-2.134;2023-04-06T10:56:51;3.65;;;1.20;;
23628;SDS011;11991;57.150;-2.134;2023-04-06T10:59:18;3.20;;;0.90;;
23628;SDS011;11991;57.150;-2.134;2023-04-06T11:01:51;5.07;;;1.40;;
23628;SDS011;11991;57.150;-2.134;2023-04-06T11:04:20;2.97;;;0.80;;
23628;SDS011;11991;57.150;-2.134;2023-04-06T11:06:47;1.13;;;0.80;;
23628;SDS011;11991;57.150;-2.134;2023-04-06T11:09:26;2.78;;;0.70;;
23628;SDS011;11991;57.150;-2.134;2023-04-06T11:11:54;1.25;;;1.02;;
23628;SDS011;11991;57.150;-2.134;2023-04-06T11:14:22;1.48;;;0.95;;
23628;SDS011;11991;57.150;-2.134;2023-04-06T11:16:49;1.67;;;0.90;;
23628;SDS011;11991;57.150;-2.134;2023-04-06T11:19:17;2.65;;;1.00;;
23628;SDS011;11991;57.150;-2.134;2023-04-06T11:21:47;7.43;;;1.13;;
23628;SDS011;11991;57.150;-2.134;2023-04-06T11:24:17;2.38;;;1.23;;
23628;SDS011;11991;57.150;-2.134;2023-04-06T11:29:18;2.83;;;1.13;;
23628;SDS011;11991;57.150;-2.134;2023-04-06T11:31:58;4.70;;;1.20;;
23628;SDS011;11991;57.150;-2.134;2023-04-06T11:34:28;2.97;;;0.98;;
23628;SDS011;11991;57.150;-2.134;2023-04-06T11:37:00;2.80;;;1.23;;
23628;SDS011;11991;57.150;-2.134;2023-04-06T11:39:29;2.95;;;0.80;;
23628;SDS011;11991;57.150;-2.134;2023-04-06T11:41:57;0.93;;;0.52;;
23628;SDS011;11991;57.150;-2.134;2023-04-06T11:44:31;3.25;;;1.25;;
23628;SDS011;11991;57.150;-2.134;2023-04-06T11:47:03;2.92;;;1.00;;
23628;SDS011;11991;57.150;-2.134;2023-04-06T11:49:32;1.40;;;0.90;;
23628;SDS011;11991;57.150;-2.134;2023-04-06T11:52:00;2.85;;;1.20;;
23628;SDS011;11991;57.150;-2.134;2023-04-06T11:57:02;2.83;;;1.35;;
23628;SDS011;11991;57.150;-2.134;2023-04-06T11:59:30;3.25;;;1.40;;
23628;SDS011;11991;57.150;-2.134;2023-04-06T12:01:58;1.73;;;1.00;;
23628;SDS011;11991;57.150;-2.134;2023-04-06T12:04:26;1.88;;;0.88;;
23628;SDS011;11991;57.150;-2.134;2023-04-06T12:06:53;3.33;;;1.20;;
23628;SDS011;11991;57.150;-2.134;2023-04-06T12:09:21;1.98;;;1.10;;
23628;SDS011;11991;57.150;-2.134;2023-04-06T12:11:48;3.42;;;1.17;;
23628;SDS011;11991;57.150;-2.134;2023-04-06T12:14:16;4.72;;;1.55;;
23628;SDS011;11991;57.150;-2.134;2023-04-06T12:16:43;3.03;;;1.20;;
23628;SDS011;11991;57.150;-2.134;2023-04-06T12:19:11;1.88;;;1.17;;
23628;SDS011;11991;57.150;-2.134;2023-04-06T12:21:38;4.57;;;1.63;;
23628;SDS011;11991;57.150;-2.134;2023-04-06T12:24:05;2.75;;;0.90;;
23628;SDS011;11991;57.150;-2.134;2023-04-06T12:26:33;5.18;;;1.20;;
23628;SDS011;11991;57.150;-2.134;2023-04-06T12:29:00;2.05;;;1.20;;
23628;SDS011;11991;57.150;-2.134;2023-04-06T12:31:36;2.85;;;1.13;;
23628;SDS011;11991;57.150;-2.134;2023-04-06T12:34:09;2.72;;;1.20;;
23628;SDS011;11991;57.150;-2.134;2023-04-06T12:36:37;3.20;;;0.90;;
23628;SDS011;11991;57.150;-2.134;2023-04-06T12:39:05;2.80;;;1.13;;
23628;SDS011;11991;57.150;-2.134;2023-04-06T12:41:33;4.53;;;2.10;;
23628;SDS011;11991;57.150;-2.134;2023-04-06T12:44:01;2.30;;;1.27;;
23628;SDS011;11991;57.150;-2.134;2023-04-06T12:46:29;1.60;;;0.98;;
23628;SDS011;11991;57.150;-2.134;2023-04-06T12:48:57;4.32;;;1.33;;
23628;SDS011;11991;57.150;-2.134;2023-04-06T12:51:29;1.98;;;1.00;;
23628;SDS011;11991;57.150;-2.134;2023-04-06T12:53:58;3.17;;;1.20;;
23628;SDS011;11991;57.150;-2.134;2023-04-06T12:56:25;2.80;;;1.23;;
23628;SDS011;11991;57.150;-2.134;2023-04-06T12:58:52;1.67;;;1.05;;
23628;SDS011;11991;57.150;-2.134;2023-04-06T13:01:19;4.57;;;1.35;;
23628;SDS011;11991;57.150;-2.134;2023-04-06T13:03:47;5.15;;;1.42;;
23628;SDS011;11991;57.150;-2.134;2023-04-06T13:06:14;3.88;;;1.20;;
23628;SDS011;11991;57.150;-2.134;2023-04-06T13:08:42;6.25;;;1.50;;
23628;SDS011;11991;57.150;-2.134;2023-04-06T13:11:09;3.83;;;1.40;;
23628;SDS011;11991;57.150;-2.134;2023-04-06T13:13:37;2.78;;;1.40;;
23628;SDS011;11991;57.150;-2.134;2023-04-06T13:16:05;2.88;;;1.30;;
23628;SDS011;11991;57.150;-2.134;2023-04-06T13:18:34;2.65;;;1.25;;
23628;SDS011;11991;57.150;-2.134;2023-04-06T13:21:05;3.85;;;1.50;;
23628;SDS011;11991;57.150;-2.134;2023-04-06T13:23:33;4.05;;;1.23;;
23628;SDS011;11991;57.150;-2.134;2023-04-06T13:28:30;4.53;;;1.05;;
23628;SDS011;11991;57.150;-2.134;2023-04-06T13:30:58;3.80;;;1.30;;
23628;SDS011;11991;57.150;-2.134;2023-04-06T13:33:27;5.22;;;1.50;;
23628;SDS011;11991;57.150;-2.134;2023-04-06T13:35:56;2.08;;;0.88;;
23628;SDS011;11991;57.150;-2.134;2023-04-06T13:38:23;2.05;;;0.80;;
23628;SDS011;11991;57.150;-2.134;2023-04-06T13:40:51;2.88;;;0.93;;
23628;SDS011;11991;57.150;-2.134;2023-04-06T13:43:18;1.45;;;0.70;;
23628;SDS011;11991;57.150;-2.134;2023-04-06T13:45:49;1.98;;;0.80;;
23628;SDS011;11991;57.150;-2.134;2023-04-06T13:48:24;3.63;;;1.10;;
23628;SDS011;11991;57.150;-2.134;2023-04-06T13:50:52;3.00;;;1.02;;
23628;SDS011;11991;57.150;-2.134;2023-04-06T13:53:20;1.60;;;0.90;;
23628;SDS011;11991;57.150;-2.134;2023-04-06T13:55:53;1.65;;;1.10;;
23628;SDS011;11991;57.150;-2.134;2023-04-06T13:58:21;1.80;;;1.10;;
23628;SDS011;11991;57.150;-2.134;2023-04-06T14:00:49;4.40;;;1.05;;
23628;SDS011;11991;57.150;-2.134;2023-04-06T14:03:17;1.67;;;0.93;;
23628;SDS011;11991;57.150;-2.134;2023-04-06T14:05:45;2.15;;;0.80;;
23628;SDS011;11991;57.150;-2.134;2023-04-06T14:08:12;1.23;;;0.80;;
23628;SDS011;11991;57.150;-2.134;2023-04-06T14:10:40;3.40;;;0.70;;
23628;SDS011;11991;57.150;-2.134;2023-04-06T14:13:09;1.98;;;1.08;;
23628;SDS011;11991;57.150;-2.134;2023-04-06T14:15:37;2.45;;;0.90;;
23628;SDS011;11991;57.150;-2.134;2023-04-06T14:18:05;2.42;;;0.95;;
23628;SDS011;11991;57.150;-2.134;2023-04-06T14:20:32;0.95;;;0.75;;
23628;SDS011;11991;57.150;-2.134;2023-04-06T14:23:00;0.95;;;0.82;;
23628;SDS011;11991;57.150;-2.134;2023-04-06T14:25:28;1.50;;;0.50;;
23628;SDS011;11991;57.150;-2.134;2023-04-06T14:27:57;0.75;;;0.60;;
23628;SDS011;11991;57.150;-2.134;2023-04-06T14:30:25;0.57;;;0.57;;
23628;SDS011;11991;57.150;-2.134;2023-04-06T14:32:52;0.73;;;0.40;;
23628;SDS011;11991;57.150;-2.134;2023-04-06T14:35:19;0.40;;;0.40;;
23628;SDS011;11991;57.150;-2.134;2023-04-06T14:37:47;0.93;;;0.50;;
23628;SDS011;11991;57.150;-2.134;2023-04-06T14:40:14;0.45;;;0.40;;
23628;SDS011;11991;57.150;-2.134;2023-04-06T14:42:42;0.40;;;0.40;;
23628;SDS011;11991;57.150;-2.134;2023-04-06T14:45:09;1.38;;;0.70;;
23628;SDS011;11991;57.150;-2.134;2023-04-06T14:47:36;0.93;;;0.50;;
23628;SDS011;11991;57.150;-2.134;2023-04-06T14:50:04;1.52;;;0.70;;
23628;SDS011;11991;57.150;-2.134;2023-04-06T14:52:32;0.80;;;0.40;;
23628;SDS011;11991;57.150;-2.134;2023-04-06T14:54:59;0.98;;;0.60;;
23628;SDS011;11991;57.150;-2.134;2023-04-06T14:57:26;0.70;;;0.50;;
23628;SDS011;11991;57.150;-2.134;2023-04-06T14:59:53;0.68;;;0.60;;
23628;SDS011;11991;57.150;-2.134;2023-04-06T15:02:20;0.80;;;0.60;;